createdAt,value
2022-08-09T00:00:57.707Z,67.90
2022-08-09T00:04:03.549Z,68.30
2022-08-09T00:06:18.145Z,68.40
2022-08-09T00:08:51.941Z,68.60
2022-08-09T00:11:24.810Z,68.80
2022-08-09T00:13:53.279Z,68.70
2022-08-09T00:16:26.506Z,69.20
2022-08-09T00:19:09.534Z,69.10
2022-08-09T00:21:43.127Z,69.30
2022-08-09T00:24:24.372Z,69.60
2022-08-09T00:26:53.577Z,69.60
2022-08-09T00:30:09.776Z,69.90
2022-08-09T00:32:12.613Z,69.90
2022-08-09T00:34:52.060Z,70.10
2022-08-09T00:37:20.718Z,70.50
2022-08-09T00:40:08.937Z,70.50
2022-08-09T00:44:16.376Z,71.00
2022-08-09T00:45:25.760Z,71.10
2022-08-09T00:47:53.573Z,71.20
2022-08-09T00:50:23.654Z,71.50
2022-08-09T00:52:52.483Z,72.00
2022-08-09T00:56:03.699Z,72.50
2022-08-09T00:58:14.748Z,72.60
2022-08-09T01:00:53.540Z,72.50
2022-08-09T01:03:28.994Z,72.80
2022-08-09T01:06:18.387Z,73.40
2022-08-09T01:08:55.645Z,73.80
2022-08-09T01:11:32.576Z,74.00
2022-08-09T01:14:05.575Z,74.00
2022-08-09T01:16:38.888Z,74.10
2022-08-09T01:19:43.053Z,74.50
2022-08-09T01:22:40.235Z,74.80
2022-08-09T01:25:22.410Z,75.40
2022-08-09T01:27:57.045Z,75.40
2022-08-09T01:30:33.664Z,75.50
2022-08-09T01:33:06.495Z,76.00
2022-08-09T01:35:43.377Z,76.10
2022-08-09T01:38:17.256Z,76.40
2022-08-09T01:40:53.134Z,76.60
2022-08-09T01:43:41.977Z,76.90
2022-08-09T01:46:25.305Z,77.50
2022-08-09T01:48:59.969Z,77.60
2022-08-09T01:51:39.384Z,78.10
2022-08-09T01:54:13.124Z,78.70
2022-08-09T01:56:43.697Z,79.20
2022-08-09T01:59:23.139Z,79.40
2022-08-09T02:01:59.925Z,79.60
2022-08-09T02:04:30.888Z,80.00
2022-08-09T02:08:34.833Z,80.10
2022-08-09T02:10:07.875Z,80.20
2022-08-09T02:12:39.220Z,80.50
2022-08-09T02:15:11.709Z,80.60
2022-08-09T02:18:00.535Z,80.80
2022-08-09T02:20:34.622Z,81.40
2022-08-09T02:23:06.963Z,81.70
2022-08-09T02:25:41.959Z,81.80
2022-08-09T02:28:18.107Z,82.00
2022-08-09T02:30:51.837Z,82.30
2022-08-09T02:33:23.652Z,82.50
2022-08-09T02:36:18.470Z,82.60
2022-08-09T02:38:50.601Z,83.00
2022-08-09T02:41:23.300Z,83.20
2022-08-09T02:43:55.452Z,83.60
2022-08-09T02:46:30.011Z,84.10
2022-08-09T02:49:10.680Z,84.30
2022-08-09T02:51:42.115Z,84.50
2022-08-09T02:54:13.866Z,84.80
2022-08-09T02:56:51.308Z,85.00
2022-08-09T02:59:26.658Z,85.30
2022-08-09T03:02:11.917Z,85.40
2022-08-09T03:04:40.964Z,85.90
2022-08-09T03:07:14.203Z,86.10
2022-08-09T03:09:53.922Z,86.40
2022-08-09T03:12:24.460Z,86.70
2022-08-09T03:14:53.570Z,87.00
2022-08-09T03:17:27.131Z,87.40
2022-08-09T03:20:03.307Z,87.50
2022-08-09T03:22:42.048Z,87.50
2022-08-09T03:25:21.761Z,88.00
2022-08-09T03:27:55.213Z,88.20
2022-08-09T03:30:29.313Z,88.30
2022-08-09T03:33:11.065Z,88.40
2022-08-09T03:36:16.069Z,88.50
2022-08-09T03:38:37.257Z,88.80
2022-08-09T03:41:10.220Z,88.80
2022-08-09T03:44:03.043Z,89.20
2022-08-09T03:46:31.805Z,89.40
2022-08-09T03:49:09.045Z,89.70
2022-08-09T03:51:55.419Z,89.70
2022-08-09T03:54:30.910Z,89.80
2022-08-09T03:57:00.970Z,89.90
2022-08-09T03:59:53.039Z,89.80
2022-08-09T04:02:30.313Z,89.70
2022-08-09T04:05:05.886Z,89.70
2022-08-09T04:07:53.153Z,89.70
2022-08-09T04:10:28.517Z,89.60
2022-08-09T04:13:00.822Z,89.60
2022-08-09T04:16:17.049Z,89.80
2022-08-09T04:18:21.582Z,90.00
2022-08-09T04:20:51.714Z,90.00
2022-08-09T04:23:23.408Z,90.20
2022-08-09T04:25:53.693Z,90.20
2022-08-09T04:28:30.610Z,90.30
2022-08-09T04:31:05.751Z,90.30
2022-08-09T04:33:52.890Z,90.30
2022-08-09T04:36:28.130Z,90.30
2022-08-09T04:38:59.293Z,90.20
2022-08-09T04:41:33.097Z,90.50
2022-08-09T04:44:07.089Z,90.90
2022-08-09T04:46:59.173Z,91.60
2022-08-09T04:49:52.375Z,91.90
2022-08-09T04:52:26.544Z,91.90
2022-08-09T04:55:01.576Z,91.20
2022-08-09T04:57:58.764Z,90.30
2022-08-09T05:00:18.617Z,88.30
2022-08-09T05:02:48.523Z,85.60
2022-08-09T05:05:31.934Z,83.00
2022-08-09T05:08:09.183Z,79.00
2022-08-09T05:10:37.122Z,75.10
2022-08-09T05:13:05.153Z,71.60
2022-08-09T05:15:39.357Z,68.20
2022-08-09T05:18:39.320Z,64.50
2022-08-09T05:21:13.521Z,60.50
2022-08-09T05:23:57.828Z,58.00
2022-08-09T05:26:36.693Z,55.50
2022-08-09T05:29:17.664Z,52.80
2022-08-09T05:31:56.775Z,51.10
2022-08-09T05:34:31.224Z,48.80
2022-08-09T05:37:04.849Z,47.40
2022-08-09T05:39:36.265Z,45.90
2022-08-09T05:42:21.123Z,44.70
2022-08-09T05:44:50.659Z,43.40
2022-08-09T05:47:19.661Z,42.70
2022-08-09T05:50:24.349Z,41.40
2022-08-09T05:52:38.754Z,40.50
2022-08-09T05:55:10.934Z,39.50
2022-08-09T05:57:56.099Z,39.50
2022-08-09T06:00:26.713Z,39.00
2022-08-09T06:02:57.457Z,38.20
2022-08-09T06:05:50.159Z,36.90
2022-08-09T06:08:14.029Z,36.30
2022-08-09T06:10:49.819Z,36.50
2022-08-09T06:13:20.382Z,37.10
2022-08-09T06:15:51.389Z,36.70
2022-08-09T06:18:25.273Z,37.20
2022-08-09T06:20:54.702Z,38.50
2022-08-09T06:23:55.785Z,39.20
2022-08-09T06:26:20.337Z,37.70
2022-08-09T06:28:49.946Z,38.00
2022-08-09T06:31:31.096Z,36.20
2022-08-09T06:33:59.743Z,35.50
2022-08-09T06:36:29.828Z,36.00
2022-08-09T06:38:58.437Z,35.50
2022-08-09T06:42:07.984Z,36.10
2022-08-09T06:44:19.468Z,33.90
2022-08-09T06:46:50.958Z,33.30
2022-08-09T06:49:29.390Z,33.10
2022-08-09T06:52:12.304Z,34.30
2022-08-09T06:54:44.135Z,33.60
2022-08-09T06:57:13.959Z,33.00
2022-08-09T07:00:51.001Z,32.00
2022-08-09T07:02:31.697Z,31.10
2022-08-09T07:05:00.490Z,32.20
2022-08-09T07:08:00.767Z,31.40
2022-08-09T07:10:29.352Z,31.60
2022-08-09T07:12:59.327Z,32.00
2022-08-09T07:16:38.931Z,32.10
2022-08-09T07:18:16.792Z,31.80
2022-08-09T07:20:47.843Z,32.50
2022-08-09T07:23:18.476Z,32.60
2022-08-09T07:25:52.574Z,32.10
2022-08-09T07:28:34.606Z,32.60
2022-08-09T07:31:05.095Z,31.80
2022-08-09T07:33:44.787Z,30.20
2022-08-09T07:36:22.044Z,30.00
2022-08-09T07:38:56.807Z,29.70
2022-08-09T07:41:33.065Z,30.40
2022-08-09T07:44:08.265Z,30.90
2022-08-09T07:46:39.712Z,29.50
2022-08-09T07:49:15.498Z,28.30
2022-08-09T07:52:04.386Z,28.70
2022-08-09T07:54:31.898Z,28.30
2022-08-09T07:57:00.337Z,27.70
2022-08-09T07:59:45.571Z,26.30
2022-08-09T08:02:19.679Z,26.80
2022-08-09T08:04:49.329Z,27.00
2022-08-09T08:08:06.471Z,26.60
2022-08-09T08:10:11.365Z,26.80
2022-08-09T08:12:43.663Z,26.50
2022-08-09T08:15:16.672Z,26.70
2022-08-09T08:17:53.395Z,25.80
2022-08-09T08:20:29.477Z,25.80
2022-08-09T08:23:03.794Z,26.10
2022-08-09T08:25:46.411Z,26.30
2022-08-09T08:28:15.205Z,26.30
2022-08-09T08:30:44.886Z,26.20
2022-08-09T08:33:23.662Z,26.70
2022-08-09T08:35:58.634Z,26.30
2022-08-09T08:38:29.299Z,26.10
2022-08-09T08:40:58.214Z,27.00
2022-08-09T08:43:27.664Z,26.20
2022-08-09T08:46:09.823Z,25.90
2022-08-09T08:48:53.674Z,26.20
2022-08-09T08:51:23.641Z,26.10
2022-08-09T08:54:03.289Z,26.30
2022-08-09T08:56:35.456Z,26.00
2022-08-09T08:59:18.818Z,25.00
2022-08-09T09:01:52.994Z,25.20
2022-08-09T09:04:29.716Z,25.50
2022-08-09T09:07:07.942Z,25.40
2022-08-09T09:09:58.435Z,26.30
2022-08-09T09:12:29.109Z,26.80
2022-08-09T09:15:01.061Z,25.70
2022-08-09T09:17:51.662Z,26.10
2022-08-09T09:20:18.237Z,25.70
2022-08-09T09:22:57.111Z,25.60
2022-08-09T09:26:01.567Z,25.30
2022-08-09T09:29:02.803Z,25.30
2022-08-09T09:31:17.545Z,25.40
2022-08-09T09:34:15.190Z,24.90
2022-08-09T09:36:53.934Z,24.70
2022-08-09T09:39:42.627Z,25.20
2022-08-09T09:42:24.396Z,24.90
2022-08-09T09:44:57.471Z,25.60
2022-08-09T09:47:25.751Z,25.20
2022-08-09T09:50:15.294Z,24.80
2022-08-09T09:52:53.879Z,24.10
2022-08-09T09:55:28.658Z,23.60
2022-08-09T09:58:15.543Z,24.40
2022-08-09T10:00:52.582Z,24.20
2022-08-09T10:03:43.828Z,23.90
2022-08-09T10:06:17.000Z,23.40
2022-08-09T10:08:55.090Z,24.50
2022-08-09T10:12:01.376Z,24.30
2022-08-09T10:14:30.835Z,23.60
2022-08-09T10:17:40.238Z,23.50
2022-08-09T10:19:59.772Z,23.70
2022-08-09T10:22:34.474Z,24.20
2022-08-09T10:25:11.696Z,23.80
2022-08-09T10:27:45.053Z,23.30
2022-08-09T10:33:29.529Z,23.30
2022-08-09T10:36:04.433Z,23.30
2022-08-09T10:38:56.664Z,22.20
2022-08-09T10:41:22.028Z,22.90
2022-08-09T10:43:59.427Z,22.70
2022-08-09T10:46:55.181Z,23.20
2022-08-09T10:49:50.171Z,23.70
2022-08-09T10:52:35.522Z,24.40
2022-08-09T10:55:20.639Z,23.70
2022-08-09T10:57:51.856Z,24.10
2022-08-09T11:00:41.882Z,24.00
2022-08-09T11:03:50.728Z,24.70
2022-08-09T11:06:22.719Z,24.80
2022-08-09T11:08:53.411Z,25.80
2022-08-09T11:11:24.019Z,26.40
2022-08-09T11:14:28.001Z,27.00
2022-08-09T11:16:57.217Z,27.90
2022-08-09T11:20:12.207Z,28.90
2022-08-09T11:23:02.992Z,29.80
2022-08-09T11:25:47.516Z,30.60
2022-08-09T11:28:56.399Z,31.20
2022-08-09T11:31:49.264Z,31.80
2022-08-09T11:34:36.035Z,32.50
2022-08-09T11:37:07.533Z,33.50
2022-08-09T11:40:01.349Z,34.10
2022-08-09T11:42:46.931Z,34.50
2022-08-09T11:45:22.717Z,34.60
2022-08-09T11:48:02.743Z,35.10
2022-08-09T11:52:48.909Z,35.40
2022-08-09T11:54:28.581Z,35.50
2022-08-09T11:57:59.811Z,35.60
2022-08-09T12:00:29.477Z,35.70
2022-08-09T12:03:00.522Z,35.60
2022-08-09T12:05:49.511Z,35.10
2022-08-09T12:08:22.136Z,35.30
2022-08-09T12:10:53.119Z,35.10
2022-08-09T12:14:07.428Z,35.40
2022-08-09T12:16:30.627Z,35.40
2022-08-09T12:19:08.022Z,35.60
2022-08-09T12:21:48.632Z,35.40
2022-08-09T12:24:24.538Z,35.30
2022-08-09T12:29:11.993Z,35.50
2022-08-09T12:30:01.910Z,35.00
2022-08-09T12:32:44.520Z,34.70
2022-08-09T12:35:19.127Z,34.70
2022-08-09T12:37:51.558Z,34.80
2022-08-09T12:40:23.332Z,34.10
2022-08-09T12:42:53.676Z,34.10
2022-08-09T12:45:33.796Z,34.10
2022-08-09T12:48:07.971Z,34.40
2022-08-09T12:50:39.742Z,34.00
2022-08-09T12:53:33.420Z,34.20
2022-08-09T12:56:39.857Z,33.70
2022-08-09T12:59:07.844Z,33.60
2022-08-09T13:01:38.192Z,33.90
2022-08-09T13:04:37.099Z,33.90
2022-08-09T13:07:13.919Z,33.70
2022-08-09T13:09:52.819Z,34.00
2022-08-09T13:12:25.344Z,34.20
2022-08-09T13:14:55.160Z,34.70
2022-08-09T13:18:02.734Z,34.60
2022-08-09T13:20:16.308Z,34.60
2022-08-09T13:23:01.192Z,34.10
2022-08-09T13:25:42.276Z,34.50
2022-08-09T13:28:24.359Z,34.50
2022-08-09T13:32:13.748Z,34.50
2022-08-09T13:33:57.520Z,34.70
2022-08-09T13:36:40.579Z,34.40
2022-08-09T13:41:18.919Z,34.40
2022-08-09T13:42:02.138Z,34.10
2022-08-09T13:44:32.558Z,34.30
2022-08-09T13:47:28.847Z,34.10
2022-08-09T13:50:01.015Z,34.40
2022-08-09T13:52:30.610Z,34.40
2022-08-09T13:55:02.220Z,33.40
2022-08-09T13:57:35.574Z,33.10
2022-08-09T14:00:12.243Z,33.30
2022-08-09T14:03:03.863Z,34.00
2022-08-09T14:05:59.305Z,33.70
2022-08-09T14:08:18.157Z,33.40
2022-08-09T14:10:51.846Z,33.90
2022-08-09T14:13:28.255Z,33.90
2022-08-09T14:16:14.283Z,34.00
2022-08-09T14:18:45.819Z,33.70
2022-08-09T14:21:18.296Z,33.70
2022-08-09T14:23:54.005Z,33.60
2022-08-09T14:26:25.409Z,33.50
2022-08-09T14:28:59.704Z,34.00
2022-08-09T14:31:36.407Z,34.00
2022-08-09T14:34:17.659Z,33.80
2022-08-09T14:36:59.999Z,33.80
2022-08-09T14:39:39.944Z,34.10
2022-08-09T14:42:08.809Z,34.00
2022-08-09T14:44:48.692Z,33.70
2022-08-09T14:47:41.355Z,33.90
2022-08-09T14:50:16.281Z,33.50
2022-08-09T14:52:49.952Z,33.70
2022-08-09T14:55:19.871Z,34.00
2022-08-09T14:57:49.079Z,33.90
2022-08-09T15:00:17.907Z,33.80
2022-08-09T15:02:51.635Z,33.80
2022-08-09T15:05:20.338Z,33.80
2022-08-09T15:07:56.613Z,33.70
2022-08-09T15:10:26.570Z,33.80
2022-08-09T15:12:54.376Z,33.80
2022-08-09T15:15:23.039Z,33.90
2022-08-09T15:17:53.329Z,33.80
2022-08-09T15:22:00.966Z,33.90
2022-08-09T15:24:02.620Z,34.00
2022-08-09T15:25:58.631Z,34.00
2022-08-09T15:28:27.707Z,34.30
2022-08-09T15:31:07.427Z,34.40
2022-08-09T15:34:15.379Z,34.50
2022-08-09T15:36:30.039Z,34.50
2022-08-09T15:38:58.731Z,34.60
2022-08-09T15:41:31.328Z,34.50
2022-08-09T15:43:59.757Z,34.20
2022-08-09T15:46:32.590Z,34.00
2022-08-09T15:49:22.452Z,34.10
2022-08-09T15:52:03.288Z,34.30
2022-08-09T15:54:46.377Z,34.60
2022-08-09T15:57:19.088Z,34.40
2022-08-09T16:00:01.907Z,34.50
2022-08-09T16:02:29.875Z,34.50
2022-08-09T16:04:59.100Z,34.30
2022-08-09T16:07:39.415Z,34.50
2022-08-09T16:10:11.109Z,34.40
2022-08-09T16:12:50.172Z,34.40
2022-08-09T16:16:11.854Z,34.20
2022-08-09T16:18:08.603Z,34.40
2022-08-09T16:20:41.564Z,34.50
2022-08-09T16:23:11.477Z,34.50
2022-08-09T16:25:41.055Z,34.50
2022-08-09T16:28:12.176Z,34.60
2022-08-09T16:30:44.991Z,34.70
2022-08-09T16:33:27.058Z,34.40
2022-08-09T16:36:04.461Z,34.30
2022-08-09T16:38:37.702Z,34.60
2022-08-09T16:41:16.601Z,34.60
2022-08-09T16:43:46.343Z,34.80
2022-08-09T16:46:21.418Z,35.00
2022-08-09T16:49:02.305Z,35.20
2022-08-09T16:51:44.222Z,35.30
2022-08-09T16:54:26.024Z,35.50
2022-08-09T16:56:55.997Z,35.60
2022-08-09T16:59:28.953Z,35.70
2022-08-09T17:02:05.286Z,35.80
2022-08-09T17:04:36.545Z,35.50
2022-08-09T17:08:44.099Z,35.00
2022-08-09T17:10:01.808Z,35.30
2022-08-09T17:12:30.389Z,35.50
2022-08-09T17:15:02.404Z,35.60
2022-08-09T17:17:51.556Z,35.80
2022-08-09T17:20:36.965Z,35.80
2022-08-09T17:23:15.181Z,35.90
2022-08-09T17:25:43.117Z,36.10
2022-08-09T17:28:10.972Z,36.00
2022-08-09T17:30:47.752Z,36.10
2022-08-09T17:33:21.902Z,36.30
2022-08-09T17:35:51.616Z,36.50
2022-08-09T17:38:33.981Z,36.60
2022-08-09T17:41:09.171Z,36.70
2022-08-09T17:43:37.999Z,37.00
2022-08-09T17:46:08.633Z,37.00
2022-08-09T17:48:51.545Z,37.10
2022-08-09T17:51:21.690Z,37.10
2022-08-09T17:54:05.314Z,37.30
2022-08-09T17:56:35.553Z,37.20
2022-08-09T17:59:11.372Z,37.40
2022-08-09T18:01:57.864Z,37.40
2022-08-09T18:04:28.118Z,37.40
2022-08-09T18:06:58.982Z,37.60
2022-08-09T18:09:35.817Z,37.70
2022-08-09T18:12:17.200Z,37.90
2022-08-09T18:14:55.441Z,38.10
2022-08-09T18:18:03.901Z,38.20
2022-08-09T18:20:57.099Z,38.40
2022-08-09T18:23:07.264Z,38.60
2022-08-09T18:25:51.281Z,38.70
2022-08-09T18:30:35.188Z,38.80
2022-08-09T18:31:09.592Z,39.20
2022-08-09T18:33:37.349Z,39.30
2022-08-09T18:36:14.468Z,39.40
2022-08-09T18:39:00.971Z,39.60
2022-08-09T18:41:34.666Z,39.70
2022-08-09T18:44:04.823Z,39.90
2022-08-09T18:46:47.336Z,40.00
2022-08-09T18:49:20.611Z,40.10
2022-08-09T18:51:55.390Z,40.20
2022-08-09T18:54:29.466Z,40.50
2022-08-09T18:57:06.182Z,40.60
2022-08-09T18:59:37.059Z,40.70
2022-08-09T19:02:07.220Z,40.80
2022-08-09T19:04:35.450Z,41.10
2022-08-09T19:07:05.348Z,41.20
2022-08-09T19:10:14.638Z,41.30
2022-08-09T19:12:24.312Z,41.60
2022-08-09T19:14:52.415Z,41.70
2022-08-09T19:17:22.201Z,41.80
2022-08-09T19:19:50.199Z,42.00
2022-08-09T19:22:26.899Z,42.20
2022-08-09T19:25:07.444Z,42.30
2022-08-09T19:27:42.005Z,42.40
2022-08-09T19:30:25.246Z,42.60
2022-08-09T19:32:56.567Z,42.80
2022-08-09T19:35:26.619Z,43.10
2022-08-09T19:37:57.915Z,43.10
2022-08-09T19:40:33.366Z,43.30
2022-08-09T19:43:05.226Z,43.30
2022-08-09T19:45:40.445Z,43.50
2022-08-09T19:48:10.741Z,43.60
2022-08-09T19:50:50.367Z,43.70
2022-08-09T19:53:20.710Z,43.80
2022-08-09T19:56:03.160Z,43.80
2022-08-09T19:58:35.967Z,44.00
2022-08-09T20:01:04.219Z,44.20
2022-08-09T20:04:16.971Z,44.30
2022-08-09T20:06:23.028Z,45.10
2022-08-09T20:08:55.315Z,44.60
2022-08-09T20:11:26.564Z,44.70
2022-08-09T20:13:56.397Z,44.70
2022-08-09T20:16:35.538Z,45.00
2022-08-09T20:19:48.800Z,45.10
2022-08-09T20:22:00.101Z,45.20
2022-08-09T20:24:33.730Z,45.30
2022-08-09T20:27:07.885Z,45.40
2022-08-09T20:29:39.069Z,45.50
2022-08-09T20:32:30.461Z,45.50
2022-08-09T20:34:56.229Z,45.50
2022-08-09T20:37:24.728Z,45.50
2022-08-09T20:40:15.380Z,45.60
2022-08-09T20:42:40.401Z,45.60
2022-08-09T20:45:59.137Z,46.30
2022-08-09T20:48:10.969Z,45.90
2022-08-09T20:50:48.100Z,45.80
2022-08-09T20:53:35.712Z,45.80
2022-08-09T20:56:05.739Z,45.90
2022-08-09T20:58:33.818Z,45.90
2022-08-09T21:01:32.211Z,45.90
2022-08-09T21:05:48.546Z,45.90
2022-08-09T21:06:42.773Z,45.90
2022-08-09T21:09:11.642Z,46.00
2022-08-09T21:14:31.416Z,46.00
2022-08-09T21:17:01.989Z,46.10
2022-08-09T21:20:18.832Z,46.20
2022-08-09T21:22:42.055Z,46.30
2022-08-09T21:25:37.646Z,46.20
2022-08-09T21:28:07.271Z,46.30
2022-08-09T21:30:37.005Z,46.40
2022-08-09T21:33:10.511Z,46.50
2022-08-09T21:35:50.691Z,46.70
2022-08-09T21:38:20.947Z,46.70
2022-08-09T21:40:50.735Z,46.70
2022-08-09T21:43:21.714Z,46.70
2022-08-09T21:46:07.113Z,46.70
2022-08-09T21:48:42.597Z,46.80
2022-08-09T21:51:23.911Z,46.80
2022-08-09T21:53:54.688Z,46.80
2022-08-09T21:56:33.698Z,46.90
2022-08-09T21:59:09.893Z,46.90
2022-08-09T22:01:58.965Z,47.00
2022-08-09T22:04:55.644Z,47.00
2022-08-09T22:07:35.091Z,47.00
2022-08-09T22:10:03.126Z,47.50
2022-08-09T22:12:31.953Z,46.90
2022-08-09T22:14:59.935Z,46.90
2022-08-09T22:17:32.153Z,46.80
2022-08-09T22:20:02.435Z,46.90
2022-08-09T22:22:32.186Z,46.90
2022-08-09T22:26:05.907Z,47.00
2022-08-09T22:27:50.318Z,47.30
2022-08-09T22:30:26.322Z,48.10
2022-08-09T22:33:01.644Z,47.70
2022-08-09T22:36:01.219Z,48.00
2022-08-09T22:38:19.007Z,48.30
2022-08-09T22:40:49.076Z,48.70
2022-08-09T22:44:01.755Z,48.80
2022-08-09T22:48:11.735Z,48.90
2022-08-09T22:49:10.163Z,49.10
2022-08-09T22:51:49.199Z,49.30
2022-08-09T22:54:21.316Z,49.40
2022-08-09T22:56:54.712Z,49.50
2022-08-09T22:59:56.158Z,49.70
2022-08-09T23:02:15.704Z,49.80
2022-08-09T23:04:54.252Z,50.10
2022-08-09T23:08:22.635Z,50.10
2022-08-09T23:10:32.777Z,50.40
2022-08-09T23:13:01.060Z,50.30
2022-08-09T23:15:30.265Z,50.50
2022-08-09T23:17:58.910Z,50.60
2022-08-09T23:20:28.742Z,50.60
2022-08-09T23:22:58.182Z,50.80
2022-08-09T23:25:26.036Z,50.80
2022-08-09T23:27:56.640Z,50.90
2022-08-09T23:30:43.378Z,51.60
2022-08-09T23:33:19.222Z,51.70
2022-08-09T23:36:04.753Z,51.20
2022-08-09T23:38:35.926Z,51.30
2022-08-09T23:41:28.968Z,51.50
2022-08-09T23:43:57.457Z,51.60
2022-08-09T23:46:25.452Z,51.80
2022-08-09T23:48:53.226Z,51.70
2022-08-09T23:51:21.113Z,51.70
2022-08-09T23:53:52.417Z,51.90
2022-08-09T23:56:53.492Z,51.90
2022-08-09T23:59:11.164Z,52.00
